sensor_id;sensor_type;location;lat;lon;timestamp;P1;durP1;ratioP1;P2;durP2;ratioP2
74967;SDS011;63523;51.880;12.630;2022-12-07T00:01:18;14.95;;;4.80;;
74967;SDS011;63523;51.880;12.630;2022-12-07T00:03:44;16.73;;;5.80;;
74967;SDS011;63523;51.880;12.630;2022-12-07T00:06:11;20.08;;;6.90;;
74967;SDS011;63523;51.880;12.630;2022-12-07T00:08:38;24.95;;;8.52;;
74967;SDS011;63523;51.880;12.630;2022-12-07T00:11:06;27.42;;;8.60;;
74967;SDS011;63523;51.880;12.630;2022-12-07T00:13:33;25.58;;;9.60;;
74967;SDS011;63523;51.880;12.630;2022-12-07T00:16:00;30.17;;;9.98;;
74967;SDS011;63523;51.880;12.630;2022-12-07T00:18:30;28.05;;;10.25;;
74967;SDS011;63523;51.880;12.630;2022-12-07T00:21:14;30.93;;;10.50;;
74967;SDS011;63523;51.880;12.630;2022-12-07T00:23:43;30.88;;;11.57;;
74967;SDS011;63523;51.880;12.630;2022-12-07T00:26:19;34.75;;;12.48;;
74967;SDS011;63523;51.880;12.630;2022-12-07T00:28:50;26.83;;;10.87;;
74967;SDS011;63523;51.880;12.630;2022-12-07T00:31:24;34.38;;;12.02;;
74967;SDS011;63523;51.880;12.630;2022-12-07T00:33:53;36.95;;;11.45;;
74967;SDS011;63523;51.880;12.630;2022-12-07T00:36:19;25.77;;;8.63;;
74967;SDS011;63523;51.880;12.630;2022-12-07T00:38:46;20.42;;;6.65;;
74967;SDS011;63523;51.880;12.630;2022-12-07T00:41:13;12.05;;;3.35;;
74967;SDS011;63523;51.880;12.630;2022-12-07T00:43:43;8.60;;;2.58;;
74967;SDS011;63523;51.880;12.630;2022-12-07T00:46:10;8.82;;;2.65;;
74967;SDS011;63523;51.880;12.630;2022-12-07T00:48:36;7.72;;;2.60;;
74967;SDS011;63523;51.880;12.630;2022-12-07T00:51:02;7.32;;;2.17;;
74967;SDS011;63523;51.880;12.630;2022-12-07T00:53:28;8.30;;;2.13;;
74967;SDS011;63523;51.880;12.630;2022-12-07T00:55:53;7.95;;;2.45;;
74967;SDS011;63523;51.880;12.630;2022-12-07T00:58:21;8.43;;;2.38;;
74967;SDS011;63523;51.880;12.630;2022-12-07T01:00:47;9.48;;;2.70;;
74967;SDS011;63523;51.880;12.630;2022-12-07T01:03:14;8.30;;;2.45;;
74967;SDS011;63523;51.880;12.630;2022-12-07T01:05:40;8.52;;;2.50;;
74967;SDS011;63523;51.880;12.630;2022-12-07T01:08:14;8.30;;;2.30;;
74967;SDS011;63523;51.880;12.630;2022-12-07T01:10:40;9.85;;;2.85;;
74967;SDS011;63523;51.880;12.630;2022-12-07T01:13:05;9.17;;;2.97;;
74967;SDS011;63523;51.880;12.630;2022-12-07T01:15:31;10.43;;;3.30;;
74967;SDS011;63523;51.880;12.630;2022-12-07T01:17:56;9.63;;;3.07;;
74967;SDS011;63523;51.880;12.630;2022-12-07T01:20:22;11.07;;;3.50;;
74967;SDS011;63523;51.880;12.630;2022-12-07T01:22:47;11.43;;;3.93;;
74967;SDS011;63523;51.880;12.630;2022-12-07T01:25:13;11.83;;;3.50;;
74967;SDS011;63523;51.880;12.630;2022-12-07T01:27:38;10.98;;;3.50;;
74967;SDS011;63523;51.880;12.630;2022-12-07T01:30:04;11.63;;;3.43;;
74967;SDS011;63523;51.880;12.630;2022-12-07T01:32:31;13.40;;;4.10;;
74967;SDS011;63523;51.880;12.630;2022-12-07T01:34:57;10.83;;;3.53;;
74967;SDS011;63523;51.880;12.630;2022-12-07T01:37:23;12.35;;;4.15;;
74967;SDS011;63523;51.880;12.630;2022-12-07T01:39:49;12.27;;;3.90;;
74967;SDS011;63523;51.880;12.630;2022-12-07T01:42:15;9.93;;;3.42;;
74967;SDS011;63523;51.880;12.630;2022-12-07T01:47:46;11.73;;;3.50;;
74967;SDS011;63523;51.880;12.630;2022-12-07T01:50:15;11.90;;;4.00;;
74967;SDS011;63523;51.880;12.630;2022-12-07T01:52:41;12.50;;;4.25;;
74967;SDS011;63523;51.880;12.630;2022-12-07T01:55:10;14.93;;;4.57;;
74967;SDS011;63523;51.880;12.630;2022-12-07T01:57:40;15.03;;;4.83;;
74967;SDS011;63523;51.880;12.630;2022-12-07T02:00:07;14.35;;;5.22;;
74967;SDS011;63523;51.880;12.630;2022-12-07T02:02:35;15.32;;;4.78;;
74967;SDS011;63523;51.880;12.630;2022-12-07T02:05:04;14.05;;;5.03;;
74967;SDS011;63523;51.880;12.630;2022-12-07T02:07:31;16.75;;;4.88;;
74967;SDS011;63523;51.880;12.630;2022-12-07T02:10:15;14.77;;;4.80;;
74967;SDS011;63523;51.880;12.630;2022-12-07T02:12:47;15.63;;;5.30;;
74967;SDS011;63523;51.880;12.630;2022-12-07T02:15:15;14.05;;;4.93;;
74967;SDS011;63523;51.880;12.630;2022-12-07T02:20:12;15.15;;;4.82;;
74967;SDS011;63523;51.880;12.630;2022-12-07T02:22:51;16.33;;;5.32;;
74967;SDS011;63523;51.880;12.630;2022-12-07T02:25:33;15.55;;;5.10;;
74967;SDS011;63523;51.880;12.630;2022-12-07T02:28:05;15.65;;;5.10;;
74967;SDS011;63523;51.880;12.630;2022-12-07T02:30:35;18.33;;;5.60;;
74967;SDS011;63523;51.880;12.630;2022-12-07T02:33:18;15.48;;;5.03;;
74967;SDS011;63523;51.880;12.630;2022-12-07T02:36:09;18.07;;;6.00;;
74967;SDS011;63523;51.880;12.630;2022-12-07T02:38:48;17.50;;;6.10;;
74967;SDS011;63523;51.880;12.630;2022-12-07T02:41:32;16.20;;;4.88;;
74967;SDS011;63523;51.880;12.630;2022-12-07T02:44:02;18.77;;;5.30;;
74967;SDS011;63523;51.880;12.630;2022-12-07T02:46:33;17.92;;;5.28;;
74967;SDS011;63523;51.880;12.630;2022-12-07T02:49:03;17.20;;;5.87;;
74967;SDS011;63523;51.880;12.630;2022-12-07T02:51:30;19.65;;;6.25;;
74967;SDS011;63523;51.880;12.630;2022-12-07T02:53:56;18.75;;;6.35;;
74967;SDS011;63523;51.880;12.630;2022-12-07T03:07:00;19.30;;;6.90;;
74967;SDS011;63523;51.880;12.630;2022-12-07T03:12:12;18.75;;;6.22;;
74967;SDS011;63523;51.880;12.630;2022-12-07T03:14:45;18.30;;;6.00;;
74967;SDS011;63523;51.880;12.630;2022-12-07T03:17:18;16.67;;;5.95;;
74967;SDS011;63523;51.880;12.630;2022-12-07T03:19:47;14.50;;;5.20;;
74967;SDS011;63523;51.880;12.630;2022-12-07T03:22:16;18.35;;;6.05;;
74967;SDS011;63523;51.880;12.630;2022-12-07T03:24:45;17.45;;;6.05;;
74967;SDS011;63523;51.880;12.630;2022-12-07T03:30:19;16.48;;;5.60;;
74967;SDS011;63523;51.880;12.630;2022-12-07T03:35:22;15.93;;;5.20;;
74967;SDS011;63523;51.880;12.630;2022-12-07T03:43:17;14.77;;;5.25;;
74967;SDS011;63523;51.880;12.630;2022-12-07T03:46:32;15.70;;;5.37;;
74967;SDS011;63523;51.880;12.630;2022-12-07T03:48:41;15.93;;;5.40;;
74967;SDS011;63523;51.880;12.630;2022-12-07T03:51:31;13.75;;;5.32;;
74967;SDS011;63523;51.880;12.630;2022-12-07T03:54:13;15.95;;;5.55;;
74967;SDS011;63523;51.880;12.630;2022-12-07T03:56:44;14.95;;;5.78;;
74967;SDS011;63523;51.880;12.630;2022-12-07T03:59:11;16.27;;;5.93;;
74967;SDS011;63523;51.880;12.630;2022-12-07T04:01:40;15.07;;;5.00;;
74967;SDS011;63523;51.880;12.630;2022-12-07T04:04:07;15.43;;;5.90;;
74967;SDS011;63523;51.880;12.630;2022-12-07T04:06:33;16.10;;;6.17;;
74967;SDS011;63523;51.880;12.630;2022-12-07T04:08:58;14.33;;;5.43;;
74967;SDS011;63523;51.880;12.630;2022-12-07T04:11:24;16.10;;;6.18;;
74967;SDS011;63523;51.880;12.630;2022-12-07T04:13:49;13.80;;;5.37;;
74967;SDS011;63523;51.880;12.630;2022-12-07T04:16:33;14.80;;;5.47;;
74967;SDS011;63523;51.880;12.630;2022-12-07T04:18:59;16.03;;;5.87;;
74967;SDS011;63523;51.880;12.630;2022-12-07T04:21:24;15.90;;;5.90;;
74967;SDS011;63523;51.880;12.630;2022-12-07T04:23:50;15.13;;;5.93;;
74967;SDS011;63523;51.880;12.630;2022-12-07T04:26:15;17.23;;;6.30;;
74967;SDS011;63523;51.880;12.630;2022-12-07T04:28:40;14.00;;;5.30;;
74967;SDS011;63523;51.880;12.630;2022-12-07T04:31:06;15.23;;;5.97;;
74967;SDS011;63523;51.880;12.630;2022-12-07T04:33:31;15.97;;;6.30;;
74967;SDS011;63523;51.880;12.630;2022-12-07T04:35:57;17.80;;;6.55;;
74967;SDS011;63523;51.880;12.630;2022-12-07T04:38:22;17.67;;;6.00;;
74967;SDS011;63523;51.880;12.630;2022-12-07T04:40:48;16.67;;;5.97;;
74967;SDS011;63523;51.880;12.630;2022-12-07T04:43:13;18.37;;;6.37;;
74967;SDS011;63523;51.880;12.630;2022-12-07T04:45:39;18.37;;;6.73;;
74967;SDS011;63523;51.880;12.630;2022-12-07T04:48:04;18.50;;;6.53;;
74967;SDS011;63523;51.880;12.630;2022-12-07T04:50:30;18.27;;;6.43;;
74967;SDS011;63523;51.880;12.630;2022-12-07T04:52:55;18.07;;;6.40;;
74967;SDS011;63523;51.880;12.630;2022-12-07T04:55:21;17.07;;;7.07;;
74967;SDS011;63523;51.880;12.630;2022-12-07T04:57:46;18.00;;;6.60;;
74967;SDS011;63523;51.880;12.630;2022-12-07T05:00:12;19.58;;;6.72;;
74967;SDS011;63523;51.880;12.630;2022-12-07T05:02:37;18.33;;;6.50;;
74967;SDS011;63523;51.880;12.630;2022-12-07T05:05:03;18.47;;;6.87;;
74967;SDS011;63523;51.880;12.630;2022-12-07T05:07:29;18.92;;;6.85;;
74967;SDS011;63523;51.880;12.630;2022-12-07T05:09:54;20.67;;;6.90;;
74967;SDS011;63523;51.880;12.630;2022-12-07T05:12:19;18.83;;;7.20;;
74967;SDS011;63523;51.880;12.630;2022-12-07T05:14:45;21.95;;;8.23;;
74967;SDS011;63523;51.880;12.630;2022-12-07T05:17:10;20.67;;;7.33;;
74967;SDS011;63523;51.880;12.630;2022-12-07T05:19:37;22.70;;;7.53;;
74967;SDS011;63523;51.880;12.630;2022-12-07T05:22:02;19.63;;;7.27;;
74967;SDS011;63523;51.880;12.630;2022-12-07T05:24:27;22.37;;;8.17;;
74967;SDS011;63523;51.880;12.630;2022-12-07T05:26:53;22.03;;;8.67;;
74967;SDS011;63523;51.880;12.630;2022-12-07T05:29:18;22.65;;;8.52;;
74967;SDS011;63523;51.880;12.630;2022-12-07T05:31:44;23.53;;;8.30;;
74967;SDS011;63523;51.880;12.630;2022-12-07T05:34:10;24.08;;;8.20;;
74967;SDS011;63523;51.880;12.630;2022-12-07T05:36:36;23.40;;;7.97;;
74967;SDS011;63523;51.880;12.630;2022-12-07T05:39:01;21.00;;;7.72;;
74967;SDS011;63523;51.880;12.630;2022-12-07T05:41:27;23.93;;;8.80;;
74967;SDS011;63523;51.880;12.630;2022-12-07T05:44:11;23.20;;;8.13;;
74967;SDS011;63523;51.880;12.630;2022-12-07T05:46:37;22.20;;;7.93;;
74967;SDS011;63523;51.880;12.630;2022-12-07T05:49:02;20.25;;;7.15;;
74967;SDS011;63523;51.880;12.630;2022-12-07T05:51:28;27.60;;;10.03;;
74967;SDS011;63523;51.880;12.630;2022-12-07T05:53:53;31.07;;;10.87;;
74967;SDS011;63523;51.880;12.630;2022-12-07T05:56:19;31.17;;;12.02;;
74967;SDS011;63523;51.880;12.630;2022-12-07T05:58:45;21.53;;;7.77;;
74967;SDS011;63523;51.880;12.630;2022-12-07T06:01:29;19.98;;;7.50;;
74967;SDS011;63523;51.880;12.630;2022-12-07T06:03:55;25.47;;;7.60;;
74967;SDS011;63523;51.880;12.630;2022-12-07T06:06:20;20.67;;;7.35;;
74967;SDS011;63523;51.880;12.630;2022-12-07T06:08:45;22.27;;;8.60;;
74967;SDS011;63523;51.880;12.630;2022-12-07T06:11:11;20.93;;;8.83;;
74967;SDS011;63523;51.880;12.630;2022-12-07T06:13:55;18.70;;;6.88;;
74967;SDS011;63523;51.880;12.630;2022-12-07T06:16:20;21.03;;;7.77;;
74967;SDS011;63523;51.880;12.630;2022-12-07T06:18:46;22.02;;;8.43;;
74967;SDS011;63523;51.880;12.630;2022-12-07T06:21:12;22.30;;;8.30;;
74967;SDS011;63523;51.880;12.630;2022-12-07T06:23:38;18.88;;;6.82;;
74967;SDS011;63523;51.880;12.630;2022-12-07T06:26:03;17.37;;;6.83;;
74967;SDS011;63523;51.880;12.630;2022-12-07T06:28:29;18.55;;;7.20;;
74967;SDS011;63523;51.880;12.630;2022-12-07T06:30:58;17.50;;;6.37;;
74967;SDS011;63523;51.880;12.630;2022-12-07T06:33:24;18.67;;;6.55;;
74967;SDS011;63523;51.880;12.630;2022-12-07T06:35:50;18.87;;;6.90;;
74967;SDS011;63523;51.880;12.630;2022-12-07T06:38:15;20.00;;;7.43;;
74967;SDS011;63523;51.880;12.630;2022-12-07T06:40:40;17.93;;;6.67;;
74967;SDS011;63523;51.880;12.630;2022-12-07T06:43:06;17.17;;;6.27;;
74967;SDS011;63523;51.880;12.630;2022-12-07T06:45:31;16.83;;;7.07;;
74967;SDS011;63523;51.880;12.630;2022-12-07T06:47:57;20.23;;;6.60;;
74967;SDS011;63523;51.880;12.630;2022-12-07T06:50:22;21.77;;;7.85;;
74967;SDS011;63523;51.880;12.630;2022-12-07T06:52:48;19.30;;;7.20;;
74967;SDS011;63523;51.880;12.630;2022-12-07T06:55:13;24.77;;;8.77;;
74967;SDS011;63523;51.880;12.630;2022-12-07T06:57:39;39.03;;;13.17;;
74967;SDS011;63523;51.880;12.630;2022-12-07T07:00:04;49.65;;;17.33;;
74967;SDS011;63523;51.880;12.630;2022-12-07T07:02:30;55.47;;;19.60;;
74967;SDS011;63523;51.880;12.630;2022-12-07T07:04:56;57.75;;;19.48;;
74967;SDS011;63523;51.880;12.630;2022-12-07T07:07:21;64.60;;;22.37;;
74967;SDS011;63523;51.880;12.630;2022-12-07T07:09:47;65.07;;;22.23;;
74967;SDS011;63523;51.880;12.630;2022-12-07T07:12:12;52.23;;;17.87;;
74967;SDS011;63523;51.880;12.630;2022-12-07T07:14:38;48.35;;;17.65;;
74967;SDS011;63523;51.880;12.630;2022-12-07T07:17:03;35.70;;;12.73;;
74967;SDS011;63523;51.880;12.630;2022-12-07T07:19:29;45.80;;;16.00;;
74967;SDS011;63523;51.880;12.630;2022-12-07T07:21:54;45.77;;;17.60;;
74967;SDS011;63523;51.880;12.630;2022-12-07T07:24:19;45.43;;;16.03;;
74967;SDS011;63523;51.880;12.630;2022-12-07T07:26:45;57.57;;;20.20;;
74967;SDS011;63523;51.880;12.630;2022-12-07T07:29:10;55.93;;;19.97;;
74967;SDS011;63523;51.880;12.630;2022-12-07T07:31:36;52.17;;;18.30;;
74967;SDS011;63523;51.880;12.630;2022-12-07T07:34:02;48.53;;;16.73;;
74967;SDS011;63523;51.880;12.630;2022-12-07T07:36:27;52.42;;;16.80;;
74967;SDS011;63523;51.880;12.630;2022-12-07T07:38:53;52.43;;;16.23;;
74967;SDS011;63523;51.880;12.630;2022-12-07T07:41:18;47.63;;;13.67;;
74967;SDS011;63523;51.880;12.630;2022-12-07T07:43:44;45.58;;;14.98;;
74967;SDS011;63523;51.880;12.630;2022-12-07T07:46:10;44.83;;;13.60;;
74967;SDS011;63523;51.880;12.630;2022-12-07T07:48:35;41.13;;;13.47;;
74967;SDS011;63523;51.880;12.630;2022-12-07T07:51:04;41.60;;;12.90;;
74967;SDS011;63523;51.880;12.630;2022-12-07T07:53:31;47.05;;;15.00;;
74967;SDS011;63523;51.880;12.630;2022-12-07T07:55:57;41.50;;;13.37;;
74967;SDS011;63523;51.880;12.630;2022-12-07T07:58:23;44.30;;;15.40;;
74967;SDS011;63523;51.880;12.630;2022-12-07T08:00:48;46.33;;;16.07;;
74967;SDS011;63523;51.880;12.630;2022-12-07T08:03:14;49.72;;;16.35;;
74967;SDS011;63523;51.880;12.630;2022-12-07T08:05:40;48.67;;;16.73;;
74967;SDS011;63523;51.880;12.630;2022-12-07T08:08:06;48.37;;;17.00;;
74967;SDS011;63523;51.880;12.630;2022-12-07T08:10:31;42.77;;;15.10;;
74967;SDS011;63523;51.880;12.630;2022-12-07T08:12:57;37.95;;;13.73;;
74967;SDS011;63523;51.880;12.630;2022-12-07T08:15:36;53.07;;;17.07;;
74967;SDS011;63523;51.880;12.630;2022-12-07T08:18:02;50.25;;;17.30;;
74967;SDS011;63523;51.880;12.630;2022-12-07T08:20:29;47.67;;;17.05;;
74967;SDS011;63523;51.880;12.630;2022-12-07T08:22:56;34.43;;;11.97;;
74967;SDS011;63523;51.880;12.630;2022-12-07T08:25:22;27.05;;;10.13;;
74967;SDS011;63523;51.880;12.630;2022-12-07T08:27:48;25.27;;;9.37;;
74967;SDS011;63523;51.880;12.630;2022-12-07T08:30:14;22.55;;;7.70;;
74967;SDS011;63523;51.880;12.630;2022-12-07T08:32:40;22.35;;;8.02;;
74967;SDS011;63523;51.880;12.630;2022-12-07T08:35:05;20.53;;;7.87;;
74967;SDS011;63523;51.880;12.630;2022-12-07T08:37:32;15.10;;;6.03;;
74967;SDS011;63523;51.880;12.630;2022-12-07T08:39:58;19.60;;;6.93;;
74967;SDS011;63523;51.880;12.630;2022-12-07T08:42:23;17.27;;;6.80;;
74967;SDS011;63523;51.880;12.630;2022-12-07T08:44:52;13.18;;;5.72;;
74967;SDS011;63523;51.880;12.630;2022-12-07T08:47:18;20.33;;;7.95;;
74967;SDS011;63523;51.880;12.630;2022-12-07T08:49:45;19.52;;;6.97;;
74967;SDS011;63523;51.880;12.630;2022-12-07T08:52:12;22.43;;;8.43;;
74967;SDS011;63523;51.880;12.630;2022-12-07T08:54:38;28.33;;;10.00;;
74967;SDS011;63523;51.880;12.630;2022-12-07T08:57:06;33.20;;;11.60;;
74967;SDS011;63523;51.880;12.630;2022-12-07T08:59:32;33.77;;;13.87;;
74967;SDS011;63523;51.880;12.630;2022-12-07T09:02:04;37.78;;;15.30;;
74967;SDS011;63523;51.880;12.630;2022-12-07T09:04:30;38.40;;;14.65;;
74967;SDS011;63523;51.880;12.630;2022-12-07T09:06:56;41.22;;;16.02;;
74967;SDS011;63523;51.880;12.630;2022-12-07T09:09:22;30.60;;;12.27;;
74967;SDS011;63523;51.880;12.630;2022-12-07T09:11:47;31.17;;;12.53;;
74967;SDS011;63523;51.880;12.630;2022-12-07T09:14:13;35.55;;;14.00;;
74967;SDS011;63523;51.880;12.630;2022-12-07T09:16:39;32.10;;;12.67;;
74967;SDS011;63523;51.880;12.630;2022-12-07T09:19:04;21.00;;;8.00;;
74967;SDS011;63523;51.880;12.630;2022-12-07T09:21:30;25.03;;;9.87;;
74967;SDS011;63523;51.880;12.630;2022-12-07T09:23:55;18.60;;;7.00;;
74967;SDS011;63523;51.880;12.630;2022-12-07T09:26:21;18.53;;;7.63;;
74967;SDS011;63523;51.880;12.630;2022-12-07T09:28:46;19.03;;;6.60;;
74967;SDS011;63523;51.880;12.630;2022-12-07T09:31:12;14.93;;;5.68;;
74967;SDS011;63523;51.880;12.630;2022-12-07T09:33:37;12.13;;;5.17;;
74967;SDS011;63523;51.880;12.630;2022-12-07T09:36:03;14.45;;;5.70;;
74967;SDS011;63523;51.880;12.630;2022-12-07T09:38:30;15.70;;;5.60;;
74967;SDS011;63523;51.880;12.630;2022-12-07T09:40:56;13.10;;;5.53;;
74967;SDS011;63523;51.880;12.630;2022-12-07T09:43:22;14.40;;;5.60;;
74967;SDS011;63523;51.880;12.630;2022-12-07T09:45:53;13.93;;;5.07;;
74967;SDS011;63523;51.880;12.630;2022-12-07T09:48:21;12.05;;;5.78;;
74967;SDS011;63523;51.880;12.630;2022-12-07T09:51:18;13.75;;;6.18;;
74967;SDS011;63523;51.880;12.630;2022-12-07T09:53:46;15.48;;;5.15;;
74967;SDS011;63523;51.880;12.630;2022-12-07T09:56:13;17.30;;;5.63;;
74967;SDS011;63523;51.880;12.630;2022-12-07T09:58:39;14.93;;;5.03;;
74967;SDS011;63523;51.880;12.630;2022-12-07T10:01:11;13.15;;;4.70;;
74967;SDS011;63523;51.880;12.630;2022-12-07T10:03:45;11.60;;;4.65;;
74967;SDS011;63523;51.880;12.630;2022-12-07T10:06:13;11.48;;;4.68;;
74967;SDS011;63523;51.880;12.630;2022-12-07T10:08:39;11.30;;;4.37;;
74967;SDS011;63523;51.880;12.630;2022-12-07T10:11:06;11.80;;;4.38;;
74967;SDS011;63523;51.880;12.630;2022-12-07T10:13:37;13.25;;;4.85;;
74967;SDS011;63523;51.880;12.630;2022-12-07T10:16:05;11.80;;;4.95;;
74967;SDS011;63523;51.880;12.630;2022-12-07T10:18:50;11.43;;;4.20;;
74967;SDS011;63523;51.880;12.630;2022-12-07T10:21:18;12.45;;;4.60;;
74967;SDS011;63523;51.880;12.630;2022-12-07T10:24:01;11.35;;;4.63;;
74967;SDS011;63523;51.880;12.630;2022-12-07T10:26:34;19.20;;;7.28;;
74967;SDS011;63523;51.880;12.630;2022-12-07T10:29:12;18.80;;;5.72;;
74967;SDS011;63523;51.880;12.630;2022-12-07T10:31:39;23.80;;;8.07;;
74967;SDS011;63523;51.880;12.630;2022-12-07T10:34:13;14.68;;;4.78;;
74967;SDS011;63523;51.880;12.630;2022-12-07T10:36:51;12.40;;;4.05;;
74967;SDS011;63523;51.880;12.630;2022-12-07T10:39:18;12.25;;;4.50;;
74967;SDS011;63523;51.880;12.630;2022-12-07T10:41:55;15.43;;;4.63;;
74967;SDS011;63523;51.880;12.630;2022-12-07T10:44:25;7.10;;;2.20;;
74967;SDS011;63523;51.880;12.630;2022-12-07T10:58:22;9.00;;;2.07;;
74967;SDS011;63523;51.880;12.630;2022-12-07T11:07:14;23.25;;;7.45;;
74967;SDS011;63523;51.880;12.630;2022-12-07T11:10:19;26.95;;;8.32;;
74967;SDS011;63523;51.880;12.630;2022-12-07T11:13:28;30.57;;;9.13;;
74967;SDS011;63523;51.880;12.630;2022-12-07T11:18:24;30.77;;;10.70;;
74967;SDS011;63523;51.880;12.630;2022-12-07T11:37:47;5.93;;;1.58;;
74967;SDS011;63523;51.880;12.630;2022-12-07T11:43:00;7.10;;;2.28;;
74967;SDS011;63523;51.880;12.630;2022-12-07T11:45:30;6.40;;;1.70;;
74967;SDS011;63523;51.880;12.630;2022-12-07T11:47:59;5.35;;;1.42;;
74967;SDS011;63523;51.880;12.630;2022-12-07T11:50:35;5.57;;;1.40;;
74967;SDS011;63523;51.880;12.630;2022-12-07T12:01:00;6.22;;;1.92;;
74967;SDS011;63523;51.880;12.630;2022-12-07T12:03:40;5.60;;;1.63;;
74967;SDS011;63523;51.880;12.630;2022-12-07T12:06:09;6.40;;;2.00;;
74967;SDS011;63523;51.880;12.630;2022-12-07T12:08:42;6.13;;;1.77;;
74967;SDS011;63523;51.880;12.630;2022-12-07T12:22:02;7.07;;;2.35;;
74967;SDS011;63523;51.880;12.630;2022-12-07T12:24:37;8.93;;;2.67;;
74967;SDS011;63523;51.880;12.630;2022-12-07T12:27:06;9.53;;;2.77;;
74967;SDS011;63523;51.880;12.630;2022-12-07T12:29:38;11.35;;;3.50;;
74967;SDS011;63523;51.880;12.630;2022-12-07T12:32:23;8.70;;;2.67;;
74967;SDS011;63523;51.880;12.630;2022-12-07T12:37:48;7.88;;;2.47;;
74967;SDS011;63523;51.880;12.630;2022-12-07T12:42:54;6.70;;;2.00;;
74967;SDS011;63523;51.880;12.630;2022-12-07T12:52:57;7.65;;;2.28;;
74967;SDS011;63523;51.880;12.630;2022-12-07T13:00:42;7.18;;;2.47;;
74967;SDS011;63523;51.880;12.630;2022-12-07T13:03:19;7.07;;;2.37;;
74967;SDS011;63523;51.880;12.630;2022-12-07T13:09:00;8.68;;;3.33;;
74967;SDS011;63523;51.880;12.630;2022-12-07T13:11:31;7.70;;;2.50;;
74967;SDS011;63523;51.880;12.630;2022-12-07T13:20:01;6.97;;;2.60;;
74967;SDS011;63523;51.880;12.630;2022-12-07T13:25:05;11.38;;;3.28;;
74967;SDS011;63523;51.880;12.630;2022-12-07T13:27:37;8.57;;;2.63;;
74967;SDS011;63523;51.880;12.630;2022-12-07T13:30:16;8.37;;;2.73;;
74967;SDS011;63523;51.880;12.630;2022-12-07T13:32:54;8.13;;;2.35;;
74967;SDS011;63523;51.880;12.630;2022-12-07T13:38:22;8.13;;;2.53;;
74967;SDS011;63523;51.880;12.630;2022-12-07T13:43:52;5.97;;;2.13;;
74967;SDS011;63523;51.880;12.630;2022-12-07T13:46:31;7.38;;;1.77;;
74967;SDS011;63523;51.880;12.630;2022-12-07T13:51:49;7.72;;;2.30;;
74967;SDS011;63523;51.880;12.630;2022-12-07T13:54:16;6.82;;;1.90;;
74967;SDS011;63523;51.880;12.630;2022-12-07T13:56:43;7.53;;;1.60;;
74967;SDS011;63523;51.880;12.630;2022-12-07T13:59:22;8.55;;;2.13;;
74967;SDS011;63523;51.880;12.630;2022-12-07T14:01:50;6.50;;;1.67;;
74967;SDS011;63523;51.880;12.630;2022-12-07T14:06:54;5.65;;;1.70;;
74967;SDS011;63523;51.880;12.630;2022-12-07T14:09:21;5.63;;;1.50;;
74967;SDS011;63523;51.880;12.630;2022-12-07T14:11:49;8.65;;;2.13;;
74967;SDS011;63523;51.880;12.630;2022-12-07T14:14:18;7.10;;;1.77;;
74967;SDS011;63523;51.880;12.630;2022-12-07T14:16:56;6.57;;;2.00;;
74967;SDS011;63523;51.880;12.630;2022-12-07T14:22:29;6.30;;;1.90;;
74967;SDS011;63523;51.880;12.630;2022-12-07T14:25:01;7.13;;;2.45;;
74967;SDS011;63523;51.880;12.630;2022-12-07T14:27:30;7.70;;;2.50;;
74967;SDS011;63523;51.880;12.630;2022-12-07T14:29:59;5.63;;;1.87;;
74967;SDS011;63523;51.880;12.630;2022-12-07T14:32:26;7.93;;;1.88;;
74967;SDS011;63523;51.880;12.630;2022-12-07T14:35:02;10.20;;;3.05;;
74967;SDS011;63523;51.880;12.630;2022-12-07T14:37:35;18.75;;;6.55;;
74967;SDS011;63523;51.880;12.630;2022-12-07T14:40:01;25.63;;;7.32;;
74967;SDS011;63523;51.880;12.630;2022-12-07T14:42:29;25.43;;;7.33;;
74967;SDS011;63523;51.880;12.630;2022-12-07T14:44:57;19.83;;;6.15;;
74967;SDS011;63523;51.880;12.630;2022-12-07T14:47:23;21.43;;;6.33;;
74967;SDS011;63523;51.880;12.630;2022-12-07T14:49:50;14.57;;;4.28;;
74967;SDS011;63523;51.880;12.630;2022-12-07T14:52:23;19.10;;;5.80;;
74967;SDS011;63523;51.880;12.630;2022-12-07T14:54:52;25.88;;;8.13;;
74967;SDS011;63523;51.880;12.630;2022-12-07T14:57:17;24.87;;;7.50;;
74967;SDS011;63523;51.880;12.630;2022-12-07T14:59:43;24.27;;;6.95;;
74967;SDS011;63523;51.880;12.630;2022-12-07T15:02:10;23.57;;;6.67;;
74967;SDS011;63523;51.880;12.630;2022-12-07T15:04:36;31.90;;;9.75;;
74967;SDS011;63523;51.880;12.630;2022-12-07T15:07:03;24.57;;;7.63;;
74967;SDS011;63523;51.880;12.630;2022-12-07T15:09:30;10.20;;;2.42;;
74967;SDS011;63523;51.880;12.630;2022-12-07T15:11:56;5.07;;;1.27;;
74967;SDS011;63523;51.880;12.630;2022-12-07T15:14:22;6.20;;;2.03;;
74967;SDS011;63523;51.880;12.630;2022-12-07T15:16:47;6.70;;;2.07;;
74967;SDS011;63523;51.880;12.630;2022-12-07T15:19:20;6.37;;;1.60;;
74967;SDS011;63523;51.880;12.630;2022-12-07T15:21:51;5.30;;;1.10;;
74967;SDS011;63523;51.880;12.630;2022-12-07T15:24:17;6.97;;;1.73;;
74967;SDS011;63523;51.880;12.630;2022-12-07T15:26:43;8.53;;;2.70;;
74967;SDS011;63523;51.880;12.630;2022-12-07T15:29:09;11.50;;;2.30;;
74967;SDS011;63523;51.880;12.630;2022-12-07T15:31:35;6.13;;;1.67;;
74967;SDS011;63523;51.880;12.630;2022-12-07T15:34:01;5.20;;;1.40;;
74967;SDS011;63523;51.880;12.630;2022-12-07T15:36:27;6.43;;;1.75;;
74967;SDS011;63523;51.880;12.630;2022-12-07T15:38:54;7.18;;;1.70;;
74967;SDS011;63523;51.880;12.630;2022-12-07T15:41:20;7.33;;;1.67;;
74967;SDS011;63523;51.880;12.630;2022-12-07T15:43:46;5.43;;;1.60;;
74967;SDS011;63523;51.880;12.630;2022-12-07T15:46:43;12.00;;;3.25;;
74967;SDS011;63523;51.880;12.630;2022-12-07T15:49:13;22.67;;;7.43;;
74967;SDS011;63523;51.880;12.630;2022-12-07T15:51:43;29.08;;;9.57;;
74967;SDS011;63523;51.880;12.630;2022-12-07T15:54:13;32.88;;;10.35;;
74967;SDS011;63523;51.880;12.630;2022-12-07T15:56:51;28.25;;;9.27;;
74967;SDS011;63523;51.880;12.630;2022-12-07T15:59:17;26.07;;;8.63;;
74967;SDS011;63523;51.880;12.630;2022-12-07T16:01:43;36.72;;;11.88;;
74967;SDS011;63523;51.880;12.630;2022-12-07T16:04:08;38.47;;;12.70;;
74967;SDS011;63523;51.880;12.630;2022-12-07T16:06:34;34.47;;;11.38;;
74967;SDS011;63523;51.880;12.630;2022-12-07T16:09:00;30.33;;;11.13;;
74967;SDS011;63523;51.880;12.630;2022-12-07T16:11:26;26.77;;;9.97;;
74967;SDS011;63523;51.880;12.630;2022-12-07T16:13:52;31.47;;;11.10;;
74967;SDS011;63523;51.880;12.630;2022-12-07T16:16:18;36.92;;;11.73;;
74967;SDS011;63523;51.880;12.630;2022-12-07T16:18:45;39.70;;;13.73;;
74967;SDS011;63523;51.880;12.630;2022-12-07T16:21:11;39.58;;;13.07;;
74967;SDS011;63523;51.880;12.630;2022-12-07T16:23:38;28.92;;;10.27;;
74967;SDS011;63523;51.880;12.630;2022-12-07T16:26:07;21.00;;;7.15;;
74967;SDS011;63523;51.880;12.630;2022-12-07T16:28:35;14.47;;;5.43;;
74967;SDS011;63523;51.880;12.630;2022-12-07T16:31:04;10.95;;;3.58;;
74967;SDS011;63523;51.880;12.630;2022-12-07T16:33:33;10.50;;;3.10;;
74967;SDS011;63523;51.880;12.630;2022-12-07T16:36:00;7.45;;;2.38;;
74967;SDS011;63523;51.880;12.630;2022-12-07T16:38:26;14.02;;;3.47;;
74967;SDS011;63523;51.880;12.630;2022-12-07T16:40:52;18.90;;;7.00;;
74967;SDS011;63523;51.880;12.630;2022-12-07T16:43:18;16.08;;;5.60;;